sensor_id;sensor_type;location;lat;lon;timestamp;temperature;humidity
40287;DHT22;25998;46.604;13.610;2023-05-07T00:01:43;13.40;99.90
40287;DHT22;25998;46.604;13.610;2023-05-07T00:04:54;13.50;99.90
40287;DHT22;25998;46.604;13.610;2023-05-07T00:08:05;13.50;99.90
40287;DHT22;25998;46.604;13.610;2023-05-07T00:11:16;13.50;99.90
40287;DHT22;25998;46.604;13.610;2023-05-07T00:14:27;13.50;99.90
40287;DHT22;25998;46.604;13.610;2023-05-07T00:17:38;13.40;99.90
40287;DHT22;25998;46.604;13.610;2023-05-07T00:20:49;13.40;99.90
40287;DHT22;25998;46.604;13.610;2023-05-07T00:24:00;13.40;99.90
40287;DHT22;25998;46.604;13.610;2023-05-07T00:27:10;13.30;99.90
40287;DHT22;25998;46.604;13.610;2023-05-07T00:30:21;13.30;99.90
40287;DHT22;25998;46.604;13.610;2023-05-07T00:33:32;13.20;99.90
40287;DHT22;25998;46.604;13.610;2023-05-07T00:36:43;13.20;99.90
40287;DHT22;25998;46.604;13.610;2023-05-07T00:39:54;13.10;99.90
40287;DHT22;25998;46.604;13.610;2023-05-07T00:43:06;13.10;99.90
40287;DHT22;25998;46.604;13.610;2023-05-07T00:46:18;13.10;99.90
40287;DHT22;25998;46.604;13.610;2023-05-07T00:49:43;13.10;99.90
40287;DHT22;25998;46.604;13.610;2023-05-07T00:52:54;13.10;99.90
40287;DHT22;25998;46.604;13.610;2023-05-07T00:56:06;13.10;99.90
40287;DHT22;25998;46.604;13.610;2023-05-07T00:59:17;13.00;99.90
40287;DHT22;25998;46.604;13.610;2023-05-07T01:02:29;13.00;99.90
40287;DHT22;25998;46.604;13.610;2023-05-07T01:05:41;13.00;99.90
40287;DHT22;25998;46.604;13.610;2023-05-07T01:08:52;12.90;99.90
40287;DHT22;25998;46.604;13.610;2023-05-07T01:12:07;13.00;99.90
40287;DHT22;25998;46.604;13.610;2023-05-07T01:15:18;12.90;99.90
40287;DHT22;25998;46.604;13.610;2023-05-07T01:18:29;13.00;99.90
40287;DHT22;25998;46.604;13.610;2023-05-07T01:21:43;13.00;99.90
40287;DHT22;25998;46.604;13.610;2023-05-07T01:24:55;13.10;99.90
40287;DHT22;25998;46.604;13.610;2023-05-07T01:28:06;13.00;99.90
40287;DHT22;25998;46.604;13.610;2023-05-07T01:31:18;13.00;99.90
40287;DHT22;25998;46.604;13.610;2023-05-07T01:34:32;12.80;99.90
40287;DHT22;25998;46.604;13.610;2023-05-07T01:37:46;12.80;99.90
40287;DHT22;25998;46.604;13.610;2023-05-07T01:40:58;12.90;99.90
40287;DHT22;25998;46.604;13.610;2023-05-07T01:44:10;13.00;99.90
40287;DHT22;25998;46.604;13.610;2023-05-07T01:47:23;13.00;99.90
40287;DHT22;25998;46.604;13.610;2023-05-07T01:50:36;13.00;99.90
40287;DHT22;25998;46.604;13.610;2023-05-07T01:53:47;13.10;99.90
40287;DHT22;25998;46.604;13.610;2023-05-07T01:57:01;13.20;99.90
40287;DHT22;25998;46.604;13.610;2023-05-07T02:00:12;13.20;99.90
40287;DHT22;25998;46.604;13.610;2023-05-07T02:03:23;13.10;99.90
40287;DHT22;25998;46.604;13.610;2023-05-07T02:06:34;13.10;99.90
40287;DHT22;25998;46.604;13.610;2023-05-07T02:09:44;13.10;99.90
40287;DHT22;25998;46.604;13.610;2023-05-07T02:12:56;13.00;99.90
40287;DHT22;25998;46.604;13.610;2023-05-07T02:16:07;13.00;99.90
40287;DHT22;25998;46.604;13.610;2023-05-07T02:19:17;13.10;99.90
40287;DHT22;25998;46.604;13.610;2023-05-07T02:22:34;13.20;99.90
40287;DHT22;25998;46.604;13.610;2023-05-07T02:25:45;13.20;99.90
40287;DHT22;25998;46.604;13.610;2023-05-07T02:28:56;13.30;99.90
40287;DHT22;25998;46.604;13.610;2023-05-07T02:32:07;13.50;99.90
40287;DHT22;25998;46.604;13.610;2023-05-07T02:35:18;13.50;99.90
40287;DHT22;25998;46.604;13.610;2023-05-07T02:38:29;13.60;99.90
40287;DHT22;25998;46.604;13.610;2023-05-07T02:41:39;13.50;99.90
40287;DHT22;25998;46.604;13.610;2023-05-07T02:44:50;13.40;99.90
40287;DHT22;25998;46.604;13.610;2023-05-07T02:48:01;13.50;99.90
40287;DHT22;25998;46.604;13.610;2023-05-07T02:51:12;13.40;99.90
40287;DHT22;25998;46.604;13.610;2023-05-07T02:54:23;13.30;99.90
40287;DHT22;25998;46.604;13.610;2023-05-07T02:57:33;13.40;99.90
40287;DHT22;25998;46.604;13.610;2023-05-07T03:00:45;13.40;99.90
40287;DHT22;25998;46.604;13.610;2023-05-07T03:03:56;13.40;99.90
40287;DHT22;25998;46.604;13.610;2023-05-07T03:07:07;13.60;99.90
40287;DHT22;25998;46.604;13.610;2023-05-07T03:10:17;13.50;99.90
40287;DHT22;25998;46.604;13.610;2023-05-07T03:13:29;13.50;99.90
40287;DHT22;25998;46.604;13.610;2023-05-07T03:16:40;13.60;99.90
40287;DHT22;25998;46.604;13.610;2023-05-07T03:19:50;13.60;99.90
40287;DHT22;25998;46.604;13.610;2023-05-07T03:23:01;13.70;99.90
40287;DHT22;25998;46.604;13.610;2023-05-07T03:26:12;13.50;99.90
40287;DHT22;25998;46.604;13.610;2023-05-07T03:29:23;13.40;99.90
40287;DHT22;25998;46.604;13.610;2023-05-07T03:32:34;13.40;99.90
40287;DHT22;25998;46.604;13.610;2023-05-07T03:35:46;13.30;99.90
40287;DHT22;25998;46.604;13.610;2023-05-07T03:38:56;13.30;99.90
40287;DHT22;25998;46.604;13.610;2023-05-07T03:42:07;13.50;99.90
40287;DHT22;25998;46.604;13.610;2023-05-07T03:45:18;13.60;99.90
40287;DHT22;25998;46.604;13.610;2023-05-07T03:48:30;13.70;99.90
40287;DHT22;25998;46.604;13.610;2023-05-07T03:51:40;13.70;99.90
40287;DHT22;25998;46.604;13.610;2023-05-07T03:54:52;13.50;99.90
40287;DHT22;25998;46.604;13.610;2023-05-07T03:58:04;13.40;99.90
40287;DHT22;25998;46.604;13.610;2023-05-07T04:01:15;13.40;99.90
40287;DHT22;25998;46.604;13.610;2023-05-07T04:04:26;13.50;99.90
40287;DHT22;25998;46.604;13.610;2023-05-07T04:07:36;13.50;99.90
40287;DHT22;25998;46.604;13.610;2023-05-07T04:10:47;13.40;99.90
40287;DHT22;25998;46.604;13.610;2023-05-07T04:13:58;13.60;99.90
40287;DHT22;25998;46.604;13.610;2023-05-07T04:17:09;13.60;99.90
40287;DHT22;25998;46.604;13.610;2023-05-07T04:20:21;13.50;99.90
40287;DHT22;25998;46.604;13.610;2023-05-07T04:23:32;13.60;99.90
40287;DHT22;25998;46.604;13.610;2023-05-07T04:26:42;13.70;99.90
40287;DHT22;25998;46.604;13.610;2023-05-07T04:29:53;13.70;99.90
40287;DHT22;25998;46.604;13.610;2023-05-07T04:33:06;13.70;99.90
40287;DHT22;25998;46.604;13.610;2023-05-07T04:36:17;13.70;99.90
40287;DHT22;25998;46.604;13.610;2023-05-07T04:39:28;13.60;99.90
40287;DHT22;25998;46.604;13.610;2023-05-07T04:42:39;13.70;99.90
40287;DHT22;25998;46.604;13.610;2023-05-07T04:45:51;13.60;99.90
40287;DHT22;25998;46.604;13.610;2023-05-07T04:49:02;13.50;99.90
40287;DHT22;25998;46.604;13.610;2023-05-07T04:52:14;13.50;99.90
40287;DHT22;25998;46.604;13.610;2023-05-07T04:55:25;13.60;99.90
40287;DHT22;25998;46.604;13.610;2023-05-07T04:58:36;13.70;99.90
40287;DHT22;25998;46.604;13.610;2023-05-07T05:01:47;13.70;99.90
40287;DHT22;25998;46.604;13.610;2023-05-07T05:04:58;13.70;99.90
40287;DHT22;25998;46.604;13.610;2023-05-07T05:08:09;13.70;99.90
40287;DHT22;25998;46.604;13.610;2023-05-07T05:11:20;13.70;99.90
40287;DHT22;25998;46.604;13.610;2023-05-07T05:14:31;13.80;99.90
40287;DHT22;25998;46.604;13.610;2023-05-07T05:17:42;13.80;99.90
40287;DHT22;25998;46.604;13.610;2023-05-07T05:20:53;13.80;99.90
40287;DHT22;25998;46.604;13.610;2023-05-07T05:24:04;13.90;99.90
40287;DHT22;25998;46.604;13.610;2023-05-07T05:27:15;14.00;99.90
40287;DHT22;25998;46.604;13.610;2023-05-07T05:30:26;14.10;99.90
40287;DHT22;25998;46.604;13.610;2023-05-07T05:33:37;14.10;99.90
40287;DHT22;25998;46.604;13.610;2023-05-07T05:36:47;14.10;99.90
40287;DHT22;25998;46.604;13.610;2023-05-07T05:39:58;14.20;99.90
40287;DHT22;25998;46.604;13.610;2023-05-07T05:43:09;14.20;99.90
40287;DHT22;25998;46.604;13.610;2023-05-07T05:46:20;14.20;99.90
40287;DHT22;25998;46.604;13.610;2023-05-07T05:49:31;14.40;99.90
40287;DHT22;25998;46.604;13.610;2023-05-07T05:52:42;14.50;99.90
40287;DHT22;25998;46.604;13.610;2023-05-07T05:55:52;14.50;99.90
40287;DHT22;25998;46.604;13.610;2023-05-07T05:59:03;14.70;99.90
40287;DHT22;25998;46.604;13.610;2023-05-07T06:02:14;14.80;99.90
40287;DHT22;25998;46.604;13.610;2023-05-07T06:05:25;14.70;99.90
40287;DHT22;25998;46.604;13.610;2023-05-07T06:08:36;14.60;99.90
40287;DHT22;25998;46.604;13.610;2023-05-07T06:11:47;14.70;99.90
40287;DHT22;25998;46.604;13.610;2023-05-07T06:14:57;14.60;99.90
40287;DHT22;25998;46.604;13.610;2023-05-07T06:18:08;14.50;99.90
40287;DHT22;25998;46.604;13.610;2023-05-07T06:21:19;14.60;99.90
40287;DHT22;25998;46.604;13.610;2023-05-07T06:24:30;14.80;99.90
40287;DHT22;25998;46.604;13.610;2023-05-07T06:27:41;15.00;99.90
40287;DHT22;25998;46.604;13.610;2023-05-07T06:30:52;15.30;99.90
40287;DHT22;25998;46.604;13.610;2023-05-07T06:34:03;15.30;99.90
40287;DHT22;25998;46.604;13.610;2023-05-07T06:37:13;15.10;99.90
40287;DHT22;25998;46.604;13.610;2023-05-07T06:40:24;15.20;99.90
40287;DHT22;25998;46.604;13.610;2023-05-07T06:43:35;15.40;99.90
40287;DHT22;25998;46.604;13.610;2023-05-07T06:46:46;15.30;99.90
40287;DHT22;25998;46.604;13.610;2023-05-07T06:49:57;15.30;99.90
40287;DHT22;25998;46.604;13.610;2023-05-07T06:53:08;15.40;99.90
40287;DHT22;25998;46.604;13.610;2023-05-07T06:56:19;15.60;99.90
40287;DHT22;25998;46.604;13.610;2023-05-07T06:59:30;15.60;99.90
40287;DHT22;25998;46.604;13.610;2023-05-07T07:02:41;15.70;99.90
40287;DHT22;25998;46.604;13.610;2023-05-07T07:05:53;15.80;99.90
40287;DHT22;25998;46.604;13.610;2023-05-07T07:09:04;15.80;99.90
40287;DHT22;25998;46.604;13.610;2023-05-07T07:12:15;15.70;99.90
40287;DHT22;25998;46.604;13.610;2023-05-07T07:15:26;15.70;99.90
40287;DHT22;25998;46.604;13.610;2023-05-07T07:18:37;15.60;99.90
40287;DHT22;25998;46.604;13.610;2023-05-07T07:21:48;15.50;99.90
40287;DHT22;25998;46.604;13.610;2023-05-07T07:24:59;15.50;99.90
40287;DHT22;25998;46.604;13.610;2023-05-07T07:28:10;15.50;99.90
40287;DHT22;25998;46.604;13.610;2023-05-07T07:31:21;15.60;99.90
40287;DHT22;25998;46.604;13.610;2023-05-07T07:34:32;15.90;99.90
40287;DHT22;25998;46.604;13.610;2023-05-07T07:37:43;15.80;99.90
40287;DHT22;25998;46.604;13.610;2023-05-07T07:40:53;15.50;99.90
40287;DHT22;25998;46.604;13.610;2023-05-07T07:44:05;15.60;99.90
40287;DHT22;25998;46.604;13.610;2023-05-07T07:47:18;15.80;99.90
40287;DHT22;25998;46.604;13.610;2023-05-07T07:50:28;15.90;99.90
40287;DHT22;25998;46.604;13.610;2023-05-07T07:53:39;15.80;99.90
40287;DHT22;25998;46.604;13.610;2023-05-07T07:56:52;15.80;99.90
40287;DHT22;25998;46.604;13.610;2023-05-07T08:00:03;15.80;99.90
40287;DHT22;25998;46.604;13.610;2023-05-07T08:03:14;15.80;99.90
40287;DHT22;25998;46.604;13.610;2023-05-07T08:06:27;16.00;99.90
40287;DHT22;25998;46.604;13.610;2023-05-07T08:09:38;16.00;99.90
40287;DHT22;25998;46.604;13.610;2023-05-07T08:12:50;16.20;99.90
40287;DHT22;25998;46.604;13.610;2023-05-07T08:16:01;16.40;99.90
40287;DHT22;25998;46.604;13.610;2023-05-07T08:19:12;16.50;99.90
40287;DHT22;25998;46.604;13.610;2023-05-07T08:22:22;16.50;99.90
40287;DHT22;25998;46.604;13.610;2023-05-07T08:25:34;16.60;99.90
40287;DHT22;25998;46.604;13.610;2023-05-07T08:28:45;16.60;99.90
40287;DHT22;25998;46.604;13.610;2023-05-07T08:31:56;16.90;99.90
40287;DHT22;25998;46.604;13.610;2023-05-07T08:35:07;17.10;99.90
40287;DHT22;25998;46.604;13.610;2023-05-07T08:38:18;17.30;99.90
40287;DHT22;25998;46.604;13.610;2023-05-07T08:41:29;17.10;99.90
40287;DHT22;25998;46.604;13.610;2023-05-07T08:44:42;17.40;99.90
40287;DHT22;25998;46.604;13.610;2023-05-07T08:47:59;17.40;99.90
40287;DHT22;25998;46.604;13.610;2023-05-07T08:51:13;17.20;99.90
40287;DHT22;25998;46.604;13.610;2023-05-07T08:54:25;17.20;99.90
40287;DHT22;25998;46.604;13.610;2023-05-07T08:57:36;17.20;99.90
40287;DHT22;25998;46.604;13.610;2023-05-07T09:00:47;16.90;99.90
40287;DHT22;25998;46.604;13.610;2023-05-07T09:03:58;16.80;99.90
40287;DHT22;25998;46.604;13.610;2023-05-07T09:07:09;16.90;99.90
40287;DHT22;25998;46.604;13.610;2023-05-07T09:10:21;16.90;99.90
40287;DHT22;25998;46.604;13.610;2023-05-07T09:13:32;17.10;99.90
40287;DHT22;25998;46.604;13.610;2023-05-07T09:16:42;17.30;99.90
40287;DHT22;25998;46.604;13.610;2023-05-07T09:19:53;17.60;99.90
40287;DHT22;25998;46.604;13.610;2023-05-07T09:23:05;18.00;99.90
40287;DHT22;25998;46.604;13.610;2023-05-07T09:26:18;18.20;99.90
40287;DHT22;25998;46.604;13.610;2023-05-07T09:29:28;18.40;99.90
40287;DHT22;25998;46.604;13.610;2023-05-07T09:32:40;18.50;99.90
40287;DHT22;25998;46.604;13.610;2023-05-07T09:35:51;18.30;99.90
40287;DHT22;25998;46.604;13.610;2023-05-07T09:39:02;18.00;99.90
40287;DHT22;25998;46.604;13.610;2023-05-07T09:42:13;17.90;99.90
40287;DHT22;25998;46.604;13.610;2023-05-07T09:45:28;18.00;99.90
40287;DHT22;25998;46.604;13.610;2023-05-07T09:48:41;18.10;99.90
40287;DHT22;25998;46.604;13.610;2023-05-07T09:51:52;18.10;99.90
40287;DHT22;25998;46.604;13.610;2023-05-07T09:55:04;18.10;99.90
40287;DHT22;25998;46.604;13.610;2023-05-07T09:58:18;18.40;99.90
40287;DHT22;25998;46.604;13.610;2023-05-07T10:01:31;18.70;99.90
40287;DHT22;25998;46.604;13.610;2023-05-07T10:04:42;18.80;99.90
40287;DHT22;25998;46.604;13.610;2023-05-07T10:07:54;18.80;99.90
40287;DHT22;25998;46.604;13.610;2023-05-07T10:11:05;18.70;99.90
40287;DHT22;25998;46.604;13.610;2023-05-07T10:14:17;18.50;99.90
40287;DHT22;25998;46.604;13.610;2023-05-07T10:17:29;18.30;99.90
40287;DHT22;25998;46.604;13.610;2023-05-07T10:20:42;18.70;99.90
40287;DHT22;25998;46.604;13.610;2023-05-07T10:24:06;19.00;99.90
40287;DHT22;25998;46.604;13.610;2023-05-07T10:27:24;19.40;99.90
40287;DHT22;25998;46.604;13.610;2023-05-07T10:31:08;19.60;99.90
40287;DHT22;25998;46.604;13.610;2023-05-07T10:34:25;19.60;99.90
40287;DHT22;25998;46.604;13.610;2023-05-07T10:37:37;19.70;99.90
40287;DHT22;25998;46.604;13.610;2023-05-07T10:40:48;19.60;99.90
40287;DHT22;25998;46.604;13.610;2023-05-07T10:43:59;19.90;99.90
40287;DHT22;25998;46.604;13.610;2023-05-07T10:47:14;20.20;99.90
40287;DHT22;25998;46.604;13.610;2023-05-07T10:50:25;20.20;99.90
40287;DHT22;25998;46.604;13.610;2023-05-07T10:53:36;19.70;99.90
40287;DHT22;25998;46.604;13.610;2023-05-07T10:56:47;20.00;99.90
40287;DHT22;25998;46.604;13.610;2023-05-07T10:59:58;19.80;99.90
40287;DHT22;25998;46.604;13.610;2023-05-07T11:03:09;19.90;99.90
40287;DHT22;25998;46.604;13.610;2023-05-07T11:06:21;19.80;99.90
40287;DHT22;25998;46.604;13.610;2023-05-07T11:13:09;20.60;99.90
40287;DHT22;25998;46.604;13.610;2023-05-07T11:16:24;20.50;99.90
40287;DHT22;25998;46.604;13.610;2023-05-07T11:19:55;20.70;99.90
40287;DHT22;25998;46.604;13.610;2023-05-07T11:23:07;20.40;99.90
40287;DHT22;25998;46.604;13.610;2023-05-07T11:26:18;20.50;99.90
40287;DHT22;25998;46.604;13.610;2023-05-07T11:29:30;20.40;99.90
40287;DHT22;25998;46.604;13.610;2023-05-07T11:32:41;20.10;99.90
40287;DHT22;25998;46.604;13.610;2023-05-07T11:35:55;20.50;99.90
40287;DHT22;25998;46.604;13.610;2023-05-07T11:39:23;20.70;99.90
40287;DHT22;25998;46.604;13.610;2023-05-07T11:42:36;20.40;99.90
40287;DHT22;25998;46.604;13.610;2023-05-07T11:45:48;20.70;99.90
40287;DHT22;25998;46.604;13.610;2023-05-07T11:49:00;21.00;99.90
40287;DHT22;25998;46.604;13.610;2023-05-07T11:52:13;20.70;99.90
40287;DHT22;25998;46.604;13.610;2023-05-07T11:55:24;20.30;99.90
40287;DHT22;25998;46.604;13.610;2023-05-07T11:58:36;20.30;99.90
40287;DHT22;25998;46.604;13.610;2023-05-07T12:01:47;20.50;99.90
40287;DHT22;25998;46.604;13.610;2023-05-07T12:05:00;20.50;99.90
40287;DHT22;25998;46.604;13.610;2023-05-07T12:08:15;20.30;99.90
40287;DHT22;25998;46.604;13.610;2023-05-07T12:11:26;20.50;99.90
40287;DHT22;25998;46.604;13.610;2023-05-07T12:14:42;20.40;99.90
40287;DHT22;25998;46.604;13.610;2023-05-07T12:17:53;20.70;99.90
40287;DHT22;25998;46.604;13.610;2023-05-07T12:21:05;20.50;99.90
40287;DHT22;25998;46.604;13.610;2023-05-07T12:24:16;20.40;99.90
40287;DHT22;25998;46.604;13.610;2023-05-07T12:27:27;20.60;99.90
40287;DHT22;25998;46.604;13.610;2023-05-07T12:30:39;20.70;99.90
40287;DHT22;25998;46.604;13.610;2023-05-07T12:33:50;20.60;99.90
40287;DHT22;25998;46.604;13.610;2023-05-07T12:37:04;20.40;99.90
40287;DHT22;25998;46.604;13.610;2023-05-07T12:40:15;20.10;99.90
40287;DHT22;25998;46.604;13.610;2023-05-07T12:43:27;20.30;99.90
40287;DHT22;25998;46.604;13.610;2023-05-07T12:46:39;20.50;99.90
40287;DHT22;25998;46.604;13.610;2023-05-07T12:49:50;20.70;99.90
40287;DHT22;25998;46.604;13.610;2023-05-07T12:53:04;20.60;99.90
40287;DHT22;25998;46.604;13.610;2023-05-07T12:56:18;20.40;99.90
40287;DHT22;25998;46.604;13.610;2023-05-07T12:59:47;20.40;99.90
40287;DHT22;25998;46.604;13.610;2023-05-07T13:02:58;20.40;99.90
40287;DHT22;25998;46.604;13.610;2023-05-07T13:06:09;20.40;99.90
40287;DHT22;25998;46.604;13.610;2023-05-07T13:09:20;20.00;99.90
40287;DHT22;25998;46.604;13.610;2023-05-07T13:12:31;19.80;99.90
40287;DHT22;25998;46.604;13.610;2023-05-07T13:15:42;19.80;99.90
40287;DHT22;25998;46.604;13.610;2023-05-07T13:18:53;19.80;99.90
40287;DHT22;25998;46.604;13.610;2023-05-07T13:22:06;19.70;99.90
40287;DHT22;25998;46.604;13.610;2023-05-07T13:25:17;19.60;99.90
40287;DHT22;25998;46.604;13.610;2023-05-07T13:28:28;19.30;99.90
40287;DHT22;25998;46.604;13.610;2023-05-07T13:31:39;18.80;99.90
40287;DHT22;25998;46.604;13.610;2023-05-07T13:34:53;18.60;99.90
40287;DHT22;25998;46.604;13.610;2023-05-07T13:38:04;18.60;99.90
40287;DHT22;25998;46.604;13.610;2023-05-07T13:41:15;18.60;99.90
40287;DHT22;25998;46.604;13.610;2023-05-07T13:44:26;18.60;99.90
40287;DHT22;25998;46.604;13.610;2023-05-07T13:47:37;18.70;99.90
40287;DHT22;25998;46.604;13.610;2023-05-07T13:50:48;18.80;99.90
40287;DHT22;25998;46.604;13.610;2023-05-07T13:53:59;18.70;99.90
40287;DHT22;25998;46.604;13.610;2023-05-07T13:57:10;18.60;99.90
40287;DHT22;25998;46.604;13.610;2023-05-07T14:00:20;18.50;99.90
40287;DHT22;25998;46.604;13.610;2023-05-07T14:03:31;18.60;99.90
40287;DHT22;25998;46.604;13.610;2023-05-07T14:06:44;18.60;99.90
40287;DHT22;25998;46.604;13.610;2023-05-07T14:09:56;18.50;99.90
40287;DHT22;25998;46.604;13.610;2023-05-07T14:13:07;18.50;99.90
40287;DHT22;25998;46.604;13.610;2023-05-07T14:16:18;18.50;99.90
40287;DHT22;25998;46.604;13.610;2023-05-07T14:19:28;18.60;99.90
40287;DHT22;25998;46.604;13.610;2023-05-07T14:22:39;18.50;99.90
40287;DHT22;25998;46.604;13.610;2023-05-07T14:25:50;18.60;99.90
40287;DHT22;25998;46.604;13.610;2023-05-07T14:29:02;18.40;99.90
40287;DHT22;25998;46.604;13.610;2023-05-07T14:32:13;18.50;99.90
40287;DHT22;25998;46.604;13.610;2023-05-07T14:35:23;18.40;99.90
40287;DHT22;25998;46.604;13.610;2023-05-07T14:38:34;18.40;99.90
40287;DHT22;25998;46.604;13.610;2023-05-07T14:41:45;18.30;99.90
40287;DHT22;25998;46.604;13.610;2023-05-07T14:44:56;18.30;99.90
40287;DHT22;25998;46.604;13.610;2023-05-07T14:48:07;18.10;99.90
40287;DHT22;25998;46.604;13.610;2023-05-07T14:51:20;18.00;99.90
40287;DHT22;25998;46.604;13.610;2023-05-07T14:54:33;18.10;99.90
40287;DHT22;25998;46.604;13.610;2023-05-07T14:57:45;18.00;99.90
40287;DHT22;25998;46.604;13.610;2023-05-07T15:00:56;17.90;99.90
40287;DHT22;25998;46.604;13.610;2023-05-07T15:04:07;17.90;99.90
40287;DHT22;25998;46.604;13.610;2023-05-07T15:07:18;17.90;99.90
40287;DHT22;25998;46.604;13.610;2023-05-07T15:10:29;17.90;99.90
40287;DHT22;25998;46.604;13.610;2023-05-07T15:13:41;18.00;99.90
40287;DHT22;25998;46.604;13.610;2023-05-07T15:16:52;17.90;99.90
40287;DHT22;25998;46.604;13.610;2023-05-07T15:20:03;17.90;99.90
40287;DHT22;25998;46.604;13.610;2023-05-07T15:23:17;17.70;99.90
40287;DHT22;25998;46.604;13.610;2023-05-07T15:26:28;17.50;99.90
40287;DHT22;25998;46.604;13.610;2023-05-07T15:29:39;17.50;99.90
40287;DHT22;25998;46.604;13.610;2023-05-07T15:32:50;17.50;99.90
40287;DHT22;25998;46.604;13.610;2023-05-07T15:36:01;17.40;99.90
40287;DHT22;25998;46.604;13.610;2023-05-07T15:39:13;17.40;99.90
40287;DHT22;25998;46.604;13.610;2023-05-07T15:42:24;17.40;99.90
40287;DHT22;25998;46.604;13.610;2023-05-07T15:45:42;17.50;99.90
40287;DHT22;25998;46.604;13.610;2023-05-07T15:48:53;17.40;99.90
40287;DHT22;25998;46.604;13.610;2023-05-07T15:52:04;17.30;99.90
40287;DHT22;25998;46.604;13.610;2023-05-07T15:55:15;17.20;99.90
40287;DHT22;25998;46.604;13.610;2023-05-07T15:58:26;17.20;99.90
40287;DHT22;25998;46.604;13.610;2023-05-07T16:01:37;17.30;99.90
40287;DHT22;25998;46.604;13.610;2023-05-07T16:04:48;17.40;99.90
40287;DHT22;25998;46.604;13.610;2023-05-07T16:07:59;17.50;99.90
40287;DHT22;25998;46.604;13.610;2023-05-07T16:11:10;17.50;99.90
40287;DHT22;25998;46.604;13.610;2023-05-07T16:14:21;17.40;99.90
40287;DHT22;25998;46.604;13.610;2023-05-07T16:17:32;17.30;99.90
40287;DHT22;25998;46.604;13.610;2023-05-07T16:20:44;17.20;99.90
40287;DHT22;25998;46.604;13.610;2023-05-07T16:23:55;17.10;99.90
40287;DHT22;25998;46.604;13.610;2023-05-07T16:27:06;17.50;99.90
40287;DHT22;25998;46.604;13.610;2023-05-07T16:30:17;17.60;99.90
40287;DHT22;25998;46.604;13.610;2023-05-07T16:33:28;17.70;99.90
40287;DHT22;25998;46.604;13.610;2023-05-07T16:36:39;17.60;99.90
40287;DHT22;25998;46.604;13.610;2023-05-07T16:39:49;17.50;99.90
40287;DHT22;25998;46.604;13.610;2023-05-07T16:43:00;17.30;99.90
40287;DHT22;25998;46.604;13.610;2023-05-07T16:46:13;17.50;99.90
40287;DHT22;25998;46.604;13.610;2023-05-07T16:49:24;17.60;99.90
40287;DHT22;25998;46.604;13.610;2023-05-07T16:52:35;17.50;99.90
40287;DHT22;25998;46.604;13.610;2023-05-07T16:55:46;17.50;99.90
40287;DHT22;25998;46.604;13.610;2023-05-07T16:58:57;17.50;99.90
40287;DHT22;25998;46.604;13.610;2023-05-07T17:02:07;17.30;99.90
40287;DHT22;25998;46.604;13.610;2023-05-07T17:05:18;17.30;99.90
40287;DHT22;25998;46.604;13.610;2023-05-07T17:08:29;17.40;99.90
40287;DHT22;25998;46.604;13.610;2023-05-07T17:11:40;17.40;99.90
40287;DHT22;25998;46.604;13.610;2023-05-07T17:14:51;17.40;99.90
40287;DHT22;25998;46.604;13.610;2023-05-07T17:18:02;17.40;99.90
40287;DHT22;25998;46.604;13.610;2023-05-07T17:21:13;17.50;99.90
40287;DHT22;25998;46.604;13.610;2023-05-07T17:24:23;17.50;99.90
40287;DHT22;25998;46.604;13.610;2023-05-07T17:27:34;17.50;99.90
40287;DHT22;25998;46.604;13.610;2023-05-07T17:30:45;17.50;99.90
40287;DHT22;25998;46.604;13.610;2023-05-07T17:33:57;17.50;99.90
40287;DHT22;25998;46.604;13.610;2023-05-07T17:37:08;17.60;99.90
40287;DHT22;25998;46.604;13.610;2023-05-07T17:40:20;17.60;99.90
40287;DHT22;25998;46.604;13.610;2023-05-07T17:43:31;17.60;99.90
40287;DHT22;25998;46.604;13.610;2023-05-07T17:46:42;17.60;99.90
40287;DHT22;25998;46.604;13.610;2023-05-07T17:49:53;17.60;99.90
40287;DHT22;25998;46.604;13.610;2023-05-07T17:53:04;17.60;99.90
40287;DHT22;25998;46.604;13.610;2023-05-07T17:56:15;17.60;99.90
40287;DHT22;25998;46.604;13.610;2023-05-07T17:59:27;17.70;99.90
40287;DHT22;25998;46.604;13.610;2023-05-07T18:02:38;17.50;99.90
40287;DHT22;25998;46.604;13.610;2023-05-07T18:05:50;17.50;99.90
40287;DHT22;25998;46.604;13.610;2023-05-07T18:09:01;17.30;99.90
40287;DHT22;25998;46.604;13.610;2023-05-07T18:12:12;17.10;99.90
40287;DHT22;25998;46.604;13.610;2023-05-07T18:15:23;17.00;99.90
40287;DHT22;25998;46.604;13.610;2023-05-07T18:18:34;17.00;99.90
40287;DHT22;25998;46.604;13.610;2023-05-07T18:21:45;17.10;99.90
40287;DHT22;25998;46.604;13.610;2023-05-07T18:24:55;17.10;99.90
40287;DHT22;25998;46.604;13.610;2023-05-07T18:28:06;16.90;99.90
40287;DHT22;25998;46.604;13.610;2023-05-07T18:31:17;16.90;99.90
40287;DHT22;25998;46.604;13.610;2023-05-07T18:34:30;17.10;99.90
40287;DHT22;25998;46.604;13.610;2023-05-07T18:37:40;17.10;99.90
40287;DHT22;25998;46.604;13.610;2023-05-07T18:40:51;17.10;99.90
40287;DHT22;25998;46.604;13.610;2023-05-07T18:44:02;17.00;99.90
40287;DHT22;25998;46.604;13.610;2023-05-07T18:47:13;17.00;99.90
40287;DHT22;25998;46.604;13.610;2023-05-07T18:50:24;17.00;99.90
40287;DHT22;25998;46.604;13.610;2023-05-07T18:53:35;17.00;99.90
40287;DHT22;25998;46.604;13.610;2023-05-07T18:56:45;16.90;99.90
40287;DHT22;25998;46.604;13.610;2023-05-07T18:59:56;16.90;99.90
40287;DHT22;25998;46.604;13.610;2023-05-07T19:03:07;16.80;99.90
40287;DHT22;25998;46.604;13.610;2023-05-07T19:06:18;16.70;99.90
40287;DHT22;25998;46.604;13.610;2023-05-07T19:09:30;16.50;99.90
40287;DHT22;25998;46.604;13.610;2023-05-07T19:12:41;16.50;99.90
40287;DHT22;25998;46.604;13.610;2023-05-07T19:15:52;16.50;99.90
40287;DHT22;25998;46.604;13.610;2023-05-07T19:19:03;16.20;99.90
40287;DHT22;25998;46.604;13.610;2023-05-07T19:22:15;16.30;99.90
40287;DHT22;25998;46.604;13.610;2023-05-07T19:25:26;16.20;99.90
40287;DHT22;25998;46.604;13.610;2023-05-07T19:28:37;16.20;99.90
40287;DHT22;25998;46.604;13.610;2023-05-07T19:31:48;16.10;99.90
40287;DHT22;25998;46.604;13.610;2023-05-07T19:34:59;16.10;99.90
40287;DHT22;25998;46.604;13.610;2023-05-07T19:38:10;16.10;99.90
40287;DHT22;25998;46.604;13.610;2023-05-07T19:41:21;16.00;99.90
40287;DHT22;25998;46.604;13.610;2023-05-07T19:44:35;16.00;99.90
40287;DHT22;25998;46.604;13.610;2023-05-07T19:47:47;16.10;99.90
40287;DHT22;25998;46.604;13.610;2023-05-07T19:50:58;16.10;99.90
40287;DHT22;25998;46.604;13.610;2023-05-07T19:54:09;16.10;99.90